Time;durP1;ratioP1;P1;durP2;ratioP2;P2;SDS_P1;SDS_P2;PMS_P1;PMS_P2;Temp;Humidity;BMP_temperature;BMP_pressure;BME280_temperature;BME280_humidity;BME280_pressure;Samples;Min_cycle;Max_cycle;Signal;HPM_P1;HPM_P2
2023/05/23 00:01:39;;;;;;;9.82;8.45;;;;;;;20.41;53.50;98674.44;5149070;27;20069;-71
2023/05/23 00:04:07;;;;;;;11.25;8.93;;;;;;;20.39;53.76;98683.69;5148673;27;20039;-71
2023/05/23 00:06:34;;;;;;;10.77;7.57;;;;;;;20.34;53.86;98675.25;5148399;27;20039;-71
2023/05/23 00:09:03;;;;;;;9.13;7.85;;;;;;;20.32;53.90;98678.09;5147381;27;20114;-70
2023/05/23 00:11:30;;;;;;;9.82;8.48;;;;;;;20.29;53.87;98674.91;5148383;27;20043;-71
2023/05/23 00:13:59;;;;;;;9.07;7.88;;;;;;;20.26;53.90;98669.84;5148775;27;20047;-71
2023/05/23 00:16:26;;;;;;;8.93;8.00;;;;;;;19.99;54.48;98630.53;5148739;27;20039;-71
2023/05/23 00:18:56;;;;;;;9.70;8.55;;;;;;;20.15;54.13;98671.78;5148674;27;20035;-71
2023/05/23 00:21:23;;;;;;;9.02;7.68;;;;;;;20.08;54.49;98670.75;5148097;27;20233;-70
2023/05/23 00:23:49;;;;;;;10.15;8.35;;;;;;;20.04;54.31;98672.06;5146714;27;20218;-70
2023/05/23 00:26:18;;;;;;;11.30;7.90;;;;;;;20.01;54.91;98668.84;5148239;27;20050;-71
2023/05/23 00:28:44;;;;;;;9.85;8.85;;;;;;;19.99;54.97;98671.72;5147892;27;20043;-70
2023/05/23 00:31:11;;;;;;;10.00;8.07;;;;;;;20.00;54.59;98673.41;5147044;27;20188;-71
2023/05/23 00:33:38;;;;;;;9.15;8.25;;;;;;;19.95;54.68;98674.88;5147092;27;20057;-70
2023/05/23 00:36:05;;;;;;;9.00;8.10;;;;;;;19.16;54.83;98550.41;5148406;27;20057;-70
2023/05/23 00:38:31;;;;;;;8.48;7.57;;;;;;;19.37;55.05;98595.69;5147814;27;20041;-71
2023/05/23 00:40:59;;;;;;;9.02;7.78;;;;;;;19.83;55.07;98682.38;5148273;27;20053;-71
2023/05/23 00:43:28;;;;;;;10.45;8.52;;;;;;;19.79;55.40;98676.44;5147553;27;20055;-70
2023/05/23 00:45:55;;;;;;;11.07;8.52;;;;;;;19.81;55.08;98676.31;5147603;27;20099;-70
2023/05/23 00:48:22;;;;;;;11.32;8.55;;;;;;;19.72;55.44;98678.09;5148039;27;20038;-70
2023/05/23 00:50:49;;;;;;;9.88;8.10;;;;;;;19.67;55.51;98680.41;5148075;27;20047;-70
2023/05/23 00:53:16;;;;;;;10.10;8.70;;;;;;;19.64;55.53;98680.72;5148034;27;20043;-70
2023/05/23 00:55:44;;;;;;;9.38;8.38;;;;;;;19.64;55.38;98683.41;5147722;27;20050;-70
2023/05/23 00:58:12;;;;;;;9.55;8.55;;;;;;;19.64;55.56;98682.56;5147658;27;20295;-71
2023/05/23 01:00:40;;;;;;;9.98;8.13;;;;;;;19.61;56.05;98677.50;5147336;27;20035;-70
2023/05/23 01:03:06;;;;;;;9.48;8.35;;;;;;;19.55;56.22;98674.44;5147275;27;20265;-70
2023/05/23 01:05:33;;;;;;;9.88;8.88;;;;;;;19.49;56.14;98677.78;5146398;27;20043;-71
2023/05/23 01:08:02;;;;;;;10.32;9.15;;;;;;;19.45;56.13;98675.56;5147182;27;20049;-71
2023/05/23 01:10:30;;;;;;;9.15;8.25;;;;;;;19.41;56.17;98676.88;5147380;27;20307;-71
2023/05/23 01:13:21;;;;;;;9.23;8.30;;;;;;;19.40;57.42;98675.19;5146246;27;20039;-71
2023/05/23 01:15:55;;;;;;;12.57;8.90;;;;;;;19.32;56.73;98662.50;5147288;27;20294;-71
2023/05/23 01:18:27;;;;;;;12.50;11.30;;;;;;;19.30;56.69;98667.19;5147000;27;20062;-71
2023/05/23 01:20:56;;;;;;;12.35;10.23;;;;;;;19.38;56.75;98669.09;5147271;27;20351;-71
2023/05/23 01:23:46;;;;;;;11.25;10.07;;;;;;;19.36;57.75;98663.03;5147239;27;20357;-71
2023/05/23 01:26:25;;;;;;;12.65;11.15;;;;;;;19.31;57.27;98662.66;5147169;27;20050;-71
2023/05/23 01:28:59;;;;;;;12.23;10.88;;;;;;;19.30;57.22;98669.03;5146820;27;20103;-71
2023/05/23 01:31:29;;;;;;;10.65;9.55;;;;;;;19.30;56.96;98664.50;5146026;27;20262;-71
2023/05/23 01:33:57;;;;;;;10.75;9.65;;;;;;;19.31;56.53;98654.59;5147007;27;20054;-71
2023/05/23 01:36:23;;;;;;;10.25;9.02;;;;;;;19.07;56.53;98618.50;5146849;27;20295;-72
2023/05/23 01:38:50;;;;;;;11.18;9.88;;;;;;;19.26;56.53;98659.59;5145939;27;20035;-71
2023/05/23 01:41:17;;;;;;;12.23;9.25;;;;;;;19.17;56.99;98656.84;5146588;27;20118;-71
2023/05/23 01:43:45;;;;;;;10.13;8.48;;;;;;;19.17;56.99;98656.00;5146918;27;20238;-71
2023/05/23 01:46:15;;;;;;;11.75;8.65;;;;;;;18.74;57.16;98600.44;5145777;27;20043;-71
2023/05/23 01:48:43;;;;;;;9.40;8.45;;;;;;;19.07;57.30;98649.88;5146260;28;20341;-71
2023/05/23 01:51:10;;;;;;;10.55;7.90;;;;;;;18.85;57.16;98610.94;5146885;27;20043;-71
2023/05/23 01:53:37;;;;;;;9.98;8.63;;;;;;;18.52;57.25;98564.16;5145674;28;20047;-71
2023/05/23 01:56:04;;;;;;;9.80;8.80;;;;;;;18.87;57.52;98620.50;5147138;27;20035;-71
2023/05/23 01:58:31;;;;;;;9.63;8.30;;;;;;;18.76;57.54;98607.31;5146543;28;20035;-71
2023/05/23 02:00:58;;;;;;;10.52;8.25;;;;;;;18.94;57.65;98647.59;5146783;28;20058;-71
2023/05/23 02:03:26;;;;;;;9.18;8.10;;;;;;;18.87;57.94;98642.00;5146501;28;20225;-71
2023/05/23 02:05:53;;;;;;;9.45;8.05;;;;;;;18.86;57.64;98652.88;5146477;28;20043;-71
2023/05/23 02:08:20;;;;;;;9.73;8.20;;;;;;;18.83;58.09;98653.19;5146457;28;20050;-70
2023/05/23 02:10:47;;;;;;;12.88;8.45;;;;;;;18.83;58.00;98655.88;5146975;27;20209;-71
2023/05/23 02:13:13;;;;;;;9.00;8.05;;;;;;;18.83;57.90;98647.81;5146944;28;20039;-71
2023/05/23 02:15:40;;;;;;;10.10;8.82;;;;;;;18.82;57.92;98641.59;5146668;28;20051;-71
2023/05/23 02:18:07;;;;;;;9.48;8.57;;;;;;;18.79;58.05;98639.22;5145499;28;20054;-71
2023/05/23 02:20:35;;;;;;;11.45;9.10;;;;;;;18.75;58.31;98643.22;5146658;28;20039;-71
2023/05/23 02:23:02;;;;;;;9.55;8.60;;;;;;;18.68;58.06;98631.41;5145489;28;20181;-71
2023/05/23 02:25:28;;;;;;;11.45;8.02;;;;;;;18.63;58.31;98633.72;5146267;28;20099;-72
2023/05/23 02:27:55;;;;;;;10.60;8.98;;;;;;;18.61;58.57;98634.84;5146830;28;20046;-71
2023/05/23 02:30:22;;;;;;;14.40;8.85;;;;;;;18.57;58.46;98637.84;5146189;28;20096;-71
2023/05/23 02:32:49;;;;;;;8.95;8.05;;;;;;;18.59;58.78;98632.31;5145409;28;20202;-72
2023/05/23 02:35:15;;;;;;;11.30;9.45;;;;;;;18.58;58.80;98633.31;5146243;28;20043;-71
2023/05/23 02:37:43;;;;;;;11.82;10.13;;;;;;;18.58;58.87;98631.47;5146240;27;20035;-71
2023/05/23 02:40:11;;;;;;;10.38;9.23;;;;;;;18.43;58.86;98607.97;5146765;27;20035;-71
2023/05/23 02:42:37;;;;;;;11.32;9.15;;;;;;;18.51;58.89;98627.69;5145031;28;20081;-71
2023/05/23 02:45:05;;;;;;;10.70;8.85;;;;;;;18.48;58.68;98633.38;5146553;27;20050;-71
2023/05/23 02:47:31;;;;;;;9.77;8.52;;;;;;;18.47;58.91;98630.84;5149098;27;20039;-71
2023/05/23 02:49:58;;;;;;;10.60;8.55;;;;;;;18.46;58.91;98638.03;5149843;27;20031;-71
2023/05/23 02:52:25;;;;;;;9.65;8.48;;;;;;;18.45;59.03;98630.97;5149022;27;20160;-71
2023/05/23 02:54:53;;;;;;;9.30;8.30;;;;;;;18.44;58.98;98623.94;5150040;27;20081;-71
2023/05/23 02:57:20;;;;;;;9.65;8.65;;;;;;;18.41;58.87;98634.13;5150247;27;20039;-71
2023/05/23 02:59:47;;;;;;;10.10;8.02;;;;;;;18.36;58.96;98631.06;5149952;27;20039;-71
2023/05/23 03:02:13;;;;;;;9.98;9.00;;;;;;;18.08;58.88;98585.50;5150082;27;20035;-70
2023/05/23 03:04:40;;;;;;;9.20;8.30;;;;;;;18.34;59.49;98628.53;5149570;27;20093;-71
2023/05/23 03:07:08;;;;;;;8.63;7.47;;;;;;;18.35;59.08;98630.19;5148743;27;20207;-71
2023/05/23 03:09:35;;;;;;;10.07;8.65;;;;;;;18.33;59.31;98626.81;5149800;27;20124;-71
2023/05/23 03:12:03;;;;;;;13.02;9.85;;;;;;;18.28;59.61;98619.25;5148536;27;20045;-71
2023/05/23 03:14:30;;;;;;;10.52;9.20;;;;;;;18.33;59.14;98636.72;5149641;27;20291;-71
2023/05/23 03:16:57;;;;;;;10.70;9.15;;;;;;;18.32;59.55;98629.66;5148530;27;20035;-70
2023/05/23 03:19:23;;;;;;;12.23;9.90;;;;;;;18.31;59.38;98636.03;5149375;27;20039;-71
2023/05/23 03:21:51;;;;;;;9.80;8.80;;;;;;;18.32;59.60;98635.03;5149315;27;20047;-71
2023/05/23 03:24:17;;;;;;;8.65;7.75;;;;;;;18.32;59.60;98637.72;5149816;27;20042;-71
2023/05/23 03:26:44;;;;;;;10.90;8.77;;;;;;;18.30;59.48;98642.38;5149227;27;20229;-71
2023/05/23 03:29:12;;;;;;;11.18;8.90;;;;;;;18.13;59.61;98615.38;5148237;27;20039;-71
2023/05/23 03:31:39;;;;;;;11.57;8.23;;;;;;;18.26;59.70;98644.53;5148200;27;20139;-71
2023/05/23 03:34:06;;;;;;;10.40;8.80;;;;;;;18.26;59.48;98645.38;5149049;27;20066;-71
2023/05/23 03:36:33;;;;;;;11.40;9.40;;;;;;;18.27;59.40;98649.75;5148156;27;20203;-71
2023/05/23 03:39:00;;;;;;;15.88;13.40;;;;;;;18.24;59.80;98649.19;5149487;27;20287;-71
2023/05/23 03:41:27;;;;;;;15.80;12.48;;;;;;;18.23;59.51;98652.88;5148690;27;20055;-71
2023/05/23 03:43:53;;;;;;;11.48;10.38;;;;;;;18.23;60.06;98651.03;5148684;27;20035;-71
2023/05/23 03:46:22;;;;;;;10.73;9.63;;;;;;;18.25;59.79;98651.72;5149122;27;20050;-71
2023/05/23 03:48:49;;;;;;;11.85;9.80;;;;;;;18.22;59.76;98656.53;5149286;27;20088;-71
2023/05/23 03:51:15;;;;;;;10.60;9.48;;;;;;;18.20;59.79;98654.00;5147814;27;20046;-71
2023/05/23 03:53:42;;;;;;;10.40;9.30;;;;;;;18.21;60.05;98662.91;5148661;27;20085;-71
2023/05/23 03:56:09;;;;;;;10.85;9.18;;;;;;;18.20;60.10;98664.75;5148377;27;20084;-71
2023/05/23 03:58:35;;;;;;;9.63;8.73;;;;;;;18.22;60.25;98665.44;5149143;27;20053;-71
2023/05/23 04:01:02;;;;;;;11.05;8.85;;;;;;;18.24;60.43;98659.91;5148562;27;20245;-71
2023/05/23 04:03:32;;;;;;;12.32;10.20;;;;;;;18.09;60.46;98635.44;5149050;27;20039;-71
2023/05/23 04:05:59;;;;;;;9.80;8.80;;;;;;;18.21;60.54;98662.91;5147580;27;20135;-71
2023/05/23 04:08:26;;;;;;;10.43;9.25;;;;;;;16.17;60.46;98323.72;5148466;27;20039;-71
2023/05/23 04:10:53;;;;;;;11.77;9.52;;;;;;;18.18;60.43;98657.84;5148515;27;20043;-71
2023/05/23 04:13:20;;;;;;;10.43;9.13;;;;;;;18.19;60.41;98667.56;5147367;27;20046;-71
2023/05/23 04:15:47;;;;;;;11.63;10.20;;;;;;;18.18;60.72;98658.69;5148510;27;20034;-71
2023/05/23 04:18:16;;;;;;;9.48;8.55;;;;;;;18.17;60.95;98662.34;5148130;27;20039;-71
2023/05/23 04:20:44;;;;;;;10.63;9.52;;;;;;;18.16;60.78;98662.50;5148139;27;20176;-71
2023/05/23 04:23:11;;;;;;;11.88;9.68;;;;;;;18.17;60.87;98657.00;5148654;27;20049;-72
2023/05/23 04:25:38;;;;;;;11.18;9.07;;;;;;;18.18;60.94;98658.69;5147198;27;20298;-72
2023/05/23 04:28:05;;;;;;;10.55;9.38;;;;;;;18.18;60.79;98657.84;5147151;27;20299;-72
2023/05/23 04:30:32;;;;;;;11.13;9.85;;;;;;;18.17;61.09;98651.63;5147845;27;20054;-72
2023/05/23 04:32:59;;;;;;;12.00;10.82;;;;;;;18.19;61.28;98654.16;5148344;27;20038;-72
2023/05/23 04:35:27;;;;;;;10.35;8.52;;;;;;;18.19;61.23;98652.31;5146795;27;20306;-70
2023/05/23 04:37:55;;;;;;;11.98;10.73;;;;;;;18.21;61.37;98660.22;5147740;27;20195;-71
2023/05/23 04:40:23;;;;;;;13.52;10.13;;;;;;;18.23;61.33;98666.28;5148030;27;20308;-72
2023/05/23 04:42:50;;;;;;;11.13;9.95;;;;;;;18.26;61.31;98663.28;5147490;27;20115;-72
2023/05/23 04:45:18;;;;;;;20.48;10.85;;;;;;;18.28;61.40;98658.63;5147937;27;20092;-71
2023/05/23 04:47:45;;;;;;;10.80;9.80;;;;;;;18.26;61.53;98666.81;5147643;27;20229;-71
2023/05/23 04:50:13;;;;;;;11.93;9.57;;;;;;;17.62;61.45;98555.13;5147739;27;20046;-72
2023/05/23 04:52:40;;;;;;;12.85;11.50;;;;;;;18.31;61.27;98652.13;5148015;27;20229;-70
2023/05/23 04:55:09;;;;;;;12.05;9.82;;;;;;;18.32;61.35;98661.84;5147658;27;20043;-71
2023/05/23 04:57:36;;;;;;;10.77;9.70;;;;;;;18.33;61.55;98666.22;5147318;27;20047;-72
2023/05/23 05:00:07;;;;;;;10.60;8.88;;;;;;;18.34;61.18;98667.91;5147333;27;20315;-71
2023/05/23 05:02:34;;;;;;;11.27;10.23;;;;;;;18.36;61.32;98661.41;5147579;27;20035;-71
2023/05/23 05:05:00;;;;;;;17.38;11.75;;;;;;;17.82;61.30;98581.84;5147410;27;20109;-72
2023/05/23 05:07:28;;;;;;;15.07;11.30;;;;;;;18.36;61.29;98655.19;5146060;27;20039;-71
2023/05/23 05:09:54;;;;;;;11.57;10.48;;;;;;;18.37;61.14;98656.88;5147256;27;20183;-72
2023/05/23 05:12:22;;;;;;;13.68;11.20;;;;;;;18.39;61.73;98649.53;5147338;27;20287;-71
2023/05/23 05:14:49;;;;;;;12.32;11.02;;;;;;;18.39;61.21;98649.53;5147497;27;20041;-71
2023/05/23 05:17:18;;;;;;;11.55;10.25;;;;;;;18.36;61.27;98652.50;5146912;27;20106;-71
2023/05/23 05:19:45;;;;;;;12.75;11.27;;;;;;;18.34;61.35;98649.13;5146401;27;20045;-71
2023/05/23 05:22:12;;;;;;;16.17;12.55;;;;;;;16.81;61.17;98406.75;5147071;27;20058;-72
2023/05/23 05:24:40;;;;;;;12.57;11.27;;;;;;;18.38;61.15;98658.56;5146863;27;20034;-71
2023/05/23 05:27:08;;;;;;;12.52;9.23;;;;;;;18.41;60.81;98660.94;5146952;27;20057;-72
2023/05/23 05:29:36;;;;;;;12.13;10.38;;;;;;;18.21;61.08;98631.56;5145796;27;20039;-72
2023/05/23 05:32:04;;;;;;;13.73;12.32;;;;;;;18.41;61.16;98669.84;5146966;27;20043;-71
2023/05/23 05:34:30;;;;;;;13.30;11.90;;;;;;;18.39;60.70;98660.25;5145681;27;20069;-72
2023/05/23 05:36:57;;;;;;;13.85;11.18;;;;;;;18.37;60.75;98668.47;5146863;27;20057;-72
2023/05/23 05:39:25;;;;;;;12.00;10.77;;;;;;;18.42;61.10;98668.00;5146891;27;20043;-72
2023/05/23 05:41:52;;;;;;;20.20;11.32;;;;;;;18.46;60.58;98659.50;5146756;27;20326;-72
2023/05/23 05:44:19;;;;;;;12.75;10.27;;;;;;;18.02;60.63;98585.25;5146956;27;20332;-72
2023/05/23 05:46:47;;;;;;;11.35;9.90;;;;;;;18.51;60.41;98661.72;5145004;27;20336;-72
2023/05/23 05:49:14;;;;;;;14.23;10.88;;;;;;;18.54;60.52;98665.00;5146781;27;20043;-72
2023/05/23 05:51:41;;;;;;;11.73;10.55;;;;;;;18.58;60.55;98662.84;5146764;28;20039;-71
2023/05/23 05:54:08;;;;;;;12.25;10.77;;;;;;;18.62;60.45;98666.06;5146526;27;20084;-72
2023/05/23 05:56:35;;;;;;;13.50;11.65;;;;;;;18.63;60.29;98655.19;5146206;28;20091;-72
2023/05/23 05:59:01;;;;;;;12.00;10.07;;;;;;;18.67;60.09;98659.25;5145138;28;20168;-72
2023/05/23 06:01:29;;;;;;;11.50;10.15;;;;;;;18.68;60.01;98663.63;5146412;28;20084;-72
2023/05/23 06:03:58;;;;;;;15.13;11.73;;;;;;;18.72;59.94;98658.78;5146519;27;20262;-72
2023/05/23 06:06:24;;;;;;;13.48;10.77;;;;;;;18.75;59.76;98664.69;5146603;28;20191;-72
2023/05/23 06:08:52;;;;;;;11.95;10.70;;;;;;;18.79;59.87;98655.34;5146774;28;20045;-72
2023/05/23 06:11:19;;;;;;;12.45;10.27;;;;;;;18.85;59.70;98662.78;5146462;28;20057;-72
2023/05/23 06:13:45;;;;;;;12.57;10.77;;;;;;;18.88;59.83;98656.25;5146896;28;20043;-72
2023/05/23 06:16:13;;;;;;;12.43;11.23;;;;;;;18.88;59.95;98653.56;5146188;28;20035;-72
2023/05/23 06:18:40;;;;;;;13.32;10.52;;;;;;;18.91;59.67;98651.41;5145168;28;20047;-71
2023/05/23 06:21:09;;;;;;;12.52;10.55;;;;;;;18.99;59.88;98700.81;5150620;27;20046;-73
2023/05/23 06:23:36;;;;;;;11.60;9.85;;;;;;;19.09;59.52;98653.25;5150218;27;20055;-73
2023/05/23 06:26:06;;;;;;;14.25;10.85;;;;;;;19.13;59.55;98644.72;5150793;27;20047;-72
2023/05/23 06:28:33;;;;;;;12.77;10.43;;;;;;;19.19;59.13;98651.31;5150180;27;20043;-73
2023/05/23 06:31:00;;;;;;;14.27;10.85;;;;;;;19.26;59.51;98652.38;5150186;27;20032;-72
2023/05/23 06:33:27;;;;;;;11.63;10.48;;;;;;;19.34;59.52;98654.28;5150719;27;20312;-72
2023/05/23 06:35:53;;;;;;;14.00;10.30;;;;;;;19.40;59.27;98642.94;5149580;27;20035;-73
2023/05/23 06:38:21;;;;;;;11.93;10.70;;;;;;;19.48;59.41;98649.22;5150343;27;20046;-73
2023/05/23 06:40:48;;;;;;;14.65;11.40;;;;;;;19.15;58.71;98596.22;5150305;27;20099;-72
2023/05/23 06:43:15;;;;;;;16.45;10.73;;;;;;;19.64;58.44;98653.84;5149756;27;20055;-72
2023/05/23 06:45:41;;;;;;;12.40;10.00;;;;;;;19.68;58.19;98647.16;5150004;27;20050;-72
2023/05/23 06:48:08;;;;;;;11.45;10.23;;;;;;;19.73;58.30;98644.81;5148997;27;20307;-73
2023/05/23 06:50:35;;;;;;;12.63;10.20;;;;;;;19.65;58.17;98625.13;5150099;27;20035;-72
2023/05/23 06:53:01;;;;;;;11.23;9.93;;;;;;;19.87;57.85;98651.47;5148868;27;20039;-73
2023/05/23 06:55:32;;;;;;;16.05;10.55;;;;;;;19.97;57.88;98645.97;5148863;27;20226;-73
2023/05/23 06:57:59;;;;;;;14.13;10.40;;;;;;;20.11;57.85;98637.28;5149819;27;20039;-72
2023/05/23 07:00:26;;;;;;;13.65;10.20;;;;;;;20.27;57.27;98655.38;5148502;27;20035;-73
2023/05/23 07:02:53;;;;;;;13.73;10.73;;;;;;;20.39;56.86;98637.94;5149736;27;20287;-72
2023/05/23 07:05:20;;;;;;;10.32;9.07;;;;;;;20.61;56.60;98644.53;5149284;27;20138;-73
2023/05/23 07:07:47;;;;;;;11.43;9.30;;;;;;;20.83;56.42;98643.91;5149989;27;20031;-73
2023/05/23 07:10:14;;;;;;;14.25;9.43;;;;;;;21.06;55.41;98630.63;5149333;27;20043;-72
2023/05/23 07:12:42;;;;;;;10.98;8.30;;;;;;;21.32;55.22;98623.22;5149698;27;20062;-73
2023/05/23 07:15:11;;;;;;;10.02;7.47;;;;;;;21.62;54.47;98620.78;5149640;27;20035;-73
2023/05/23 07:17:38;;;;;;;9.90;7.90;;;;;;;21.92;53.79;98630.84;5149600;27;20092;-73
2023/05/23 07:20:05;;;;;;;12.48;8.68;;;;;;;22.21;53.01;98621.28;5149739;27;20043;-72
2023/05/23 07:22:32;;;;;;;10.85;7.45;;;;;;;22.44;51.96;98618.66;5149168;27;20035;-73
2023/05/23 07:24:59;;;;;;;7.75;6.93;;;;;;;22.46;51.71;98587.75;5148097;27;20314;-73
2023/05/23 07:27:26;;;;;;;8.15;7.35;;;;;;;22.96;51.18;98616.97;5148895;27;20045;-73
2023/05/23 07:29:56;;;;;;;8.77;7.22;;;;;;;23.19;50.11;98618.81;5148999;27;20035;-73
2023/05/23 07:32:22;;;;;;;8.30;6.95;;;;;;;23.30;49.99;98616.53;5148652;27;20043;-73
2023/05/23 07:34:49;;;;;;;7.75;6.88;;;;;;;23.51;49.63;98605.00;5149148;27;20085;-73
2023/05/23 07:37:16;;;;;;;8.07;6.53;;;;;;;23.74;48.77;98607.63;5147856;27;20177;-73
2023/05/23 07:39:43;;;;;;;9.32;6.72;;;;;;;23.81;48.43;98572.53;5148766;27;20050;-73
2023/05/23 07:42:09;;;;;;;8.05;6.30;;;;;;;24.20;47.81;98607.44;5147620;27;20341;-73
2023/05/23 07:44:37;;;;;;;7.30;6.18;;;;;;;24.29;47.56;98606.28;5149020;27;20051;-73
2023/05/23 07:47:05;;;;;;;7.05;6.15;;;;;;;24.49;47.35;98611.94;5148732;27;20035;-74
2023/05/23 07:49:32;;;;;;;7.55;6.25;;;;;;;24.52;46.75;98609.69;5148700;27;20051;-73
2023/05/23 07:51:58;;;;;;;8.05;7.25;;;;;;;24.59;46.28;98602.47;5148778;27;20210;-73
2023/05/23 07:54:25;;;;;;;8.57;7.20;;;;;;;24.56;46.08;98602.84;5148968;27;20035;-73
2023/05/23 07:56:52;;;;;;;7.47;6.55;;;;;;;24.53;45.72;98605.94;5148481;27;20053;-74
2023/05/23 07:59:19;;;;;;;6.80;6.13;;;;;;;24.55;46.23;98590.34;5147718;27;20118;-73
2023/05/23 08:01:49;;;;;;;8.38;6.15;;;;;;;24.68;45.84;98607.78;5148633;27;20041;-74
2023/05/23 08:04:17;;;;;;;7.53;6.70;;;;;;;24.83;45.61;98592.31;5148014;27;20062;-74
2023/05/23 08:06:46;;;;;;;7.80;6.80;;;;;;;24.88;45.15;98571.72;5147426;27;20252;-74
2023/05/23 08:09:13;;;;;;;6.95;6.25;;;;;;;24.73;44.91;98560.13;5148252;27;20035;-73
2023/05/23 08:11:40;;;;;;;11.95;7.40;;;;;;;24.98;44.75;98586.81;5148131;27;20110;-73
2023/05/23 08:14:06;;;;;;;7.65;6.30;;;;;;;25.12;44.75;98594.06;5148724;27;20110;-73
2023/05/23 08:16:35;;;;;;;9.40;6.47;;;;;;;25.18;44.48;98580.56;5148169;27;20043;-73
2023/05/23 08:19:01;;;;;;;6.68;6.07;;;;;;;25.37;44.28;98587.22;5148000;27;20042;-73
2023/05/23 08:21:30;;;;;;;8.95;6.30;;;;;;;25.38;44.21;98559.06;5147920;27;20039;-73
2023/05/23 08:23:57;;;;;;;7.60;6.63;;;;;;;25.61;43.87;98580.47;5148101;27;20295;-74
2023/05/23 08:26:25;;;;;;;7.72;6.88;;;;;;;25.72;43.90;98581.78;5148511;27;20105;-74
2023/05/23 08:28:52;;;;;;;7.43;6.63;;;;;;;25.74;43.16;98579.72;5148413;27;20066;-74
2023/05/23 08:31:19;;;;;;;7.13;6.43;;;;;;;25.69;43.39;98574.06;5147777;27;20039;-74
2023/05/23 08:33:46;;;;;;;8.50;7.18;;;;;;;25.58;43.32;98551.88;5147827;27;20310;-74
2023/05/23 08:36:12;;;;;;;9.13;6.10;;;;;;;25.82;43.46;98572.25;5148170;27;20053;-73
2023/05/23 08:38:41;;;;;;;12.50;7.03;;;;;;;25.92;42.53;98580.88;5146854;27;20035;-73
2023/05/23 08:41:16;;;;;;;9.15;6.18;;;;;;;22.98;41.99;98098.03;5147551;27;20114;-74
2023/05/23 08:43:42;;;;;;;9.10;6.32;;;;;;;26.14;42.41;98575.34;5147181;27;20295;-74
2023/05/23 08:46:09;;;;;;;7.93;6.45;;;;;;;26.21;42.51;98578.94;5147430;27;20088;-74
2023/05/23 08:48:38;;;;;;;8.57;6.57;;;;;;;26.28;41.94;98566.22;5147597;27;20046;-74
2023/05/23 08:51:06;;;;;;;7.55;6.75;;;;;;;26.39;42.25;98568.34;5147327;27;20099;-74
2023/05/23 08:53:36;;;;;;;11.57;7.50;;;;;;;25.64;41.87;98430.00;5147667;27;20035;-74
2023/05/23 08:56:05;;;;;;;7.35;6.25;;;;;;;26.60;41.35;98580.09;5147326;27;20080;-73
2023/05/23 08:58:33;;;;;;;6.57;5.95;;;;;;;26.72;41.57;98560.28;5147398;27;20051;-74
2023/05/23 09:01:00;;;;;;;7.00;6.05;;;;;;;26.84;41.50;98566.78;5147292;27;20043;-74
2023/05/23 09:03:28;;;;;;;7.70;6.30;;;;;;;27.01;41.10;98571.81;5147445;27;20043;-74
2023/05/23 09:05:56;;;;;;;9.13;6.15;;;;;;;26.85;40.94;98526.84;5146559;27;20213;-74
2023/05/23 09:08:23;;;;;;;8.02;6.97;;;;;;;27.20;40.82;98560.09;5147063;27;20046;-74
2023/05/23 09:10:50;;;;;;;7.78;6.97;;;;;;;27.16;40.46;98556.94;5147502;27;20043;-74
2023/05/23 09:13:19;;;;;;;10.63;6.20;;;;;;;27.10;40.28;98560.50;5147553;27;20047;-74
2023/05/23 09:16:02;;;;;;;7.63;6.88;;;;;;;27.08;38.45;98559.03;5146124;27;20046;-74
2023/05/23 09:18:35;;;;;;;7.82;6.75;;;;;;;26.99;39.64;98563.03;5146056;27;20088;-74
2023/05/23 09:21:03;;;;;;;9.13;6.73;;;;;;;26.88;41.33;98559.03;5146900;27;20031;-74
2023/05/23 09:23:31;;;;;;;7.65;6.68;;;;;;;26.88;41.13;98563.63;5147036;27;20134;-74
2023/05/23 09:26:02;;;;;;;7.28;6.18;;;;;;;26.86;40.50;98556.53;5147574;27;20043;-74
2023/05/23 09:28:31;;;;;;;19.55;17.45;;;;;;;26.93;40.93;98553.81;5146019;27;20039;-74
2023/05/23 09:30:59;;;;;;;11.13;10.02;;;;;;;27.00;40.67;98553.81;5146979;27;20303;-74
2023/05/23 09:33:30;;;;;;;9.88;8.82;;;;;;;27.10;40.07;98560.50;5147205;27;20084;-74
2023/05/23 09:35:57;;;;;;;8.60;7.70;;;;;;;27.19;40.42;98563.84;5146882;27;20039;-73
2023/05/23 09:38:24;;;;;;;8.50;7.47;;;;;;;27.19;40.31;98564.69;5146349;27;20118;-74
2023/05/23 09:40:56;;;;;;;8.60;7.15;;;;;;;27.30;39.84;98565.97;5146547;27;20287;-74
2023/05/23 09:43:23;;;;;;;7.32;6.63;;;;;;;27.36;40.38;98564.28;5145590;27;20062;-73
2023/05/23 09:45:53;;;;;;;7.53;6.82;;;;;;;27.41;39.66;98562.59;5145609;27;20043;-73
2023/05/23 09:48:20;;;;;;;8.35;7.00;;;;;;;27.32;39.74;98572.03;5146862;27;20112;-73
2023/05/23 09:50:50;;;;;;;7.70;6.85;;;;;;;27.38;40.21;98583.97;5146580;27;20035;-73
2023/05/23 09:53:17;;;;;;;10.10;7.18;;;;;;;27.46;39.73;98565.53;5146570;28;20110;-73
2023/05/23 09:55:43;;;;;;;7.75;7.05;;;;;;;27.36;39.66;98532.47;5146757;27;20038;-73
2023/05/23 09:58:11;;;;;;;9.63;7.13;;;;;;;27.43;39.38;98554.22;5147106;28;20036;-73
2023/05/23 10:00:38;;;;;;;8.18;7.38;;;;;;;27.48;39.60;98563.44;5146855;27;20047;-73
2023/05/23 10:03:12;;;;;;;8.32;7.45;;;;;;;27.50;37.88;98569.50;5146549;27;20118;-73
2023/05/23 10:05:44;;;;;;;10.05;7.32;;;;;;;27.50;38.61;98555.06;5145453;28;20259;-73
2023/05/23 10:08:14;;;;;;;8.43;6.65;;;;;;;26.95;38.75;98480.19;5146431;28;20065;-73
2023/05/23 10:11:32;;;;;;;8.88;7.15;;;;;;;27.44;37.40;98558.63;5146383;28;20057;-74
2023/05/23 10:14:01;;;;;;;7.00;6.15;;;;;;;27.35;39.37;98532.69;5063884;28;20055;-74
2023/05/23 10:16:34;;;;;;;8.82;7.13;;;;;;;27.45;37.95;98560.31;5140182;27;20123;-76
2023/05/23 10:19:07;;;;;;;8.52;6.53;;;;;;;27.36;37.97;98547.97;5145883;28;20038;-75
2023/05/23 10:21:40;;;;;;;8.25;7.45;;;;;;;27.32;38.25;98555.72;5145864;28;20161;-73
2023/05/23 10:24:08;;;;;;;8.07;7.28;;;;;;;27.32;39.60;98563.03;5145947;28;20054;-73
2023/05/23 10:26:35;;;;;;;9.50;7.10;;;;;;;27.35;39.27;98555.28;5144932;28;20057;-73
2023/05/23 10:29:04;;;;;;;8.65;7.03;;;;;;;27.35;39.44;98551.72;5145368;28;20039;-73
2023/05/23 10:31:31;;;;;;;8.27;7.40;;;;;;;27.28;39.31;98550.91;5145829;28;20054;-73
2023/05/23 10:34:08;;;;;;;8.40;7.60;;;;;;;27.31;38.89;98545.03;5145861;27;20053;-74
2023/05/23 10:36:41;;;;;;;7.28;6.55;;;;;;;27.38;38.67;98548.59;5146400;28;20077;-73
2023/05/23 10:39:16;;;;;;;8.75;7.88;;;;;;;27.39;37.84;98542.94;5145091;28;20075;-73
2023/05/23 10:41:49;;;;;;;9.32;7.63;;;;;;;26.83;38.42;98442.78;5145644;28;20061;-73
2023/05/23 10:44:23;;;;;;;8.48;7.57;;;;;;;27.41;38.61;98526.41;5145087;28;20050;-73
2023/05/23 10:46:54;;;;;;;8.77;7.57;;;;;;;27.52;38.55;98528.47;5145647;28;20043;-73
2023/05/23 10:49:22;;;;;;;8.25;7.18;;;;;;;27.54;38.75;98522.81;5145368;28;20039;-73
2023/05/23 10:51:50;;;;;;;9.30;7.78;;;;;;;27.64;38.88;98524.06;5144838;28;20127;-73
2023/05/23 10:54:19;;;;;;;7.78;6.65;;;;;;;27.68;38.50;98521.75;5146293;28;20061;-73
2023/05/23 10:56:46;;;;;;;8.32;7.40;;;;;;;27.69;38.53;98509.81;5146390;28;20058;-73
2023/05/23 10:59:21;;;;;;;10.10;9.20;;;;;;;27.65;37.48;98498.53;5145019;28;20042;-73
2023/05/23 11:01:51;;;;;;;13.50;10.80;;;;;;;27.84;38.56;98504.97;5142784;28;20035;-73
2023/05/23 11:04:27;;;;;;;11.02;9.93;;;;;;;27.63;38.04;98464.41;5145734;28;20102;-73
2023/05/23 11:06:55;;;;;;;10.88;9.50;;;;;;;28.05;38.87;98509.28;5146351;27;20100;-73
2023/05/23 11:09:23;;;;;;;8.82;7.93;;;;;;;28.10;38.21;98504.03;5149940;27;20035;-68
2023/05/23 11:11:56;;;;;;;14.20;12.02;;;;;;;28.06;37.69;98505.50;5149845;27;20035;-69
2023/05/23 11:14:32;;;;;;;13.07;9.15;;;;;;;27.90;37.99;98476.03;5149802;27;20068;-69
2023/05/23 11:17:00;;;;;;;10.65;8.38;;;;;;;28.01;38.46;98499.88;5148530;27;20031;-68
2023/05/23 11:19:28;;;;;;;10.45;8.63;;;;;;;28.05;38.97;98490.22;5149209;27;20092;-69
2023/05/23 11:21:58;;;;;;;8.15;7.35;;;;;;;28.04;39.15;98480.38;5149525;27;20038;-68
2023/05/23 11:24:49;;;;;;;11.02;8.38;;;;;;;28.07;37.57;98494.41;5148910;27;20096;-71
2023/05/23 11:27:18;;;;;;;7.60;6.90;;;;;;;27.99;38.71;98488.38;5149625;27;20096;-70
2023/05/23 11:29:56;;;;;;;7.28;6.55;;;;;;;27.83;38.24;98489.69;5149527;27;20241;-69
2023/05/23 11:32:23;;;;;;;7.90;7.10;;;;;;;27.85;38.78;98492.19;5149272;27;20043;-68